Salem, Arkansas
Current Conditions -  °F | °C
As of 6:53 AM on Saturday 20 Dec 2014 (Local Time) from KUNO Reporting Station
Haze Haze  
Wind Chill: 34°   Ceiling: 1200
Heat Index: 34°   Visibility: 6mi
Dew Point: 31°   Wind: 3mph
Humidity: 89%   Direction: 150°SSE
Pressure: 30.24"   Gusts: NA
Location:  36.37°N, 91.82°W
Report Text: KUNO 201253Z AUTO 15003KT 6SM BR OVC012 01/M01 A3024 RMK AO2 SLP249 T00111006 $
Loading
Personal Weather Stations






























Interactive Weather Map New forecast layout! Learn more

10-Day Weather Forecast

Advertisements
Track Severe Weather on mobile